createdAt,value
2019-04-09T00:00:34.013Z,19.67
2019-04-09T00:01:36.995Z,15.50
2019-04-09T00:02:46.453Z,13.15
2019-04-09T00:03:47.842Z,16.75
2019-04-09T00:04:49.912Z,14.40
2019-04-09T00:05:52.047Z,19.50
2019-04-09T00:06:53.041Z,17.27
2019-04-09T00:08:01.743Z,15.90
2019-04-09T00:08:56.964Z,19.73
2019-04-09T00:09:57.994Z,19.92
2019-04-09T00:10:59.502Z,21.02
2019-04-09T00:12:00.717Z,17.27
2019-04-09T00:13:02.939Z,16.75
2019-04-09T00:14:04.040Z,16.10
2019-04-09T00:15:05.267Z,19.27
2019-04-09T00:16:06.918Z,17.92
2019-04-09T00:17:09.072Z,18.20
2019-04-09T00:18:10.211Z,14.63
2019-04-09T00:19:11.468Z,20.37
2019-04-09T00:20:13.003Z,15.65
2019-04-09T00:21:14.738Z,14.28
2019-04-09T00:22:16.657Z,15.00
2019-04-09T00:23:18.027Z,15.70
2019-04-09T00:24:19.041Z,15.00
2019-04-09T00:25:20.063Z,15.95
2019-04-09T00:26:21.894Z,16.40
2019-04-09T00:27:23.000Z,15.53
2019-04-09T00:28:24.927Z,23.52
2019-04-09T00:29:26.985Z,16.67
2019-04-09T00:30:29.124Z,14.73
2019-04-09T00:31:31.199Z,14.70
2019-04-09T00:32:32.571Z,21.50
2019-04-09T00:33:34.506Z,16.00
2019-04-09T00:34:35.888Z,16.35
2019-04-09T00:35:36.984Z,16.60
2019-04-09T00:36:38.056Z,18.62
2019-04-09T00:37:39.953Z,13.93
2019-04-09T00:38:41.124Z,13.38
2019-04-09T00:39:43.148Z,18.45
2019-04-09T00:40:44.251Z,14.45
2019-04-09T00:41:46.295Z,18.10
2019-04-09T00:42:47.465Z,16.90
2019-04-09T00:43:48.563Z,17.17
2019-04-09T00:44:49.578Z,16.75
2019-04-09T00:45:51.021Z,17.77
2019-04-09T00:46:53.197Z,17.17
2019-04-09T00:47:56.004Z,20.40
2019-04-09T00:48:57.151Z,15.80
2019-04-09T00:49:59.182Z,18.45
2019-04-09T00:51:00.280Z,19.98
2019-04-09T00:52:01.904Z,17.87
2019-04-09T00:53:03.117Z,20.37
2019-04-09T00:54:05.023Z,15.30
2019-04-09T00:55:06.443Z,21.15
2019-04-09T00:56:09.054Z,13.83
2019-04-09T00:57:10.837Z,17.50
2019-04-09T00:58:12.179Z,16.30
2019-04-09T00:59:13.285Z,19.17
2019-04-09T01:00:16.609Z,20.23
2019-04-09T01:01:22.584Z,15.15
2019-04-09T01:02:24.579Z,17.92
2019-04-09T01:03:26.011Z,20.57
2019-04-09T01:04:28.038Z,19.62
2019-04-09T01:05:29.381Z,15.35
2019-04-09T01:06:31.418Z,16.65
2019-04-09T01:07:32.800Z,14.40
2019-04-09T01:08:33.900Z,18.45
2019-04-09T01:09:35.236Z,18.12
2019-04-09T01:10:36.696Z,17.00
2019-04-09T01:11:37.859Z,22.70
2019-04-09T01:12:39.103Z,20.15
2019-04-09T01:13:40.610Z,19.87
2019-04-09T01:14:42.099Z,15.18
2019-04-09T01:15:43.134Z,17.32
2019-04-09T01:16:44.514Z,18.73
2019-04-09T01:17:45.854Z,21.95
2019-04-09T01:18:47.895Z,19.12
2019-04-09T01:19:48.919Z,16.30
2019-04-09T01:20:49.986Z,14.65
2019-04-09T01:21:51.935Z,15.45
2019-04-09T01:22:53.314Z,21.60
2019-04-09T01:23:55.232Z,19.57
2019-04-09T01:25:16.765Z,15.23
2019-04-09T01:26:36.575Z,15.63
2019-04-09T01:27:42.301Z,17.15
2019-04-09T01:28:51.371Z,18.77
2019-04-09T01:29:57.061Z,18.85
2019-04-09T01:31:17.204Z,21.30
2019-04-09T01:32:20.175Z,18.90
2019-04-09T01:33:25.588Z,19.52
2019-04-09T01:34:31.393Z,16.93
2019-04-09T01:35:51.476Z,17.30
2019-04-09T01:37:04.019Z,16.87
2019-04-09T01:38:16.063Z,17.92
2019-04-09T01:39:21.551Z,15.20
2019-04-09T01:40:34.152Z,17.92
2019-04-09T01:41:48.922Z,17.15
2019-04-09T01:43:03.852Z,22.17
2019-04-09T01:44:15.912Z,18.12
2019-04-09T01:45:26.108Z,15.43
2019-04-09T01:46:31.908Z,19.10
2019-04-09T01:47:47.084Z,17.12
2019-04-09T01:48:56.047Z,15.88
2019-04-09T01:50:01.743Z,15.38
2019-04-09T01:51:04.656Z,18.80
2019-04-09T01:52:13.415Z,22.50
2019-04-09T01:53:16.330Z,20.15
2019-04-09T01:54:19.475Z,18.75
2019-04-09T01:55:31.521Z,18.92
2019-04-09T01:56:40.919Z,19.02
2019-04-09T01:57:43.964Z,18.17
2019-04-09T01:58:49.688Z,17.30
2019-04-09T02:00:01.209Z,15.28
2019-04-09T02:01:07.488Z,15.55
2019-04-09T02:02:13.306Z,15.53
2019-04-09T02:03:21.869Z,17.30
2019-04-09T02:04:34.689Z,17.30
2019-04-09T02:05:46.388Z,19.23
2019-04-09T02:06:51.925Z,18.82
2019-04-09T02:07:55.328Z,14.18
2019-04-09T02:09:04.805Z,16.27
2019-04-09T02:10:08.885Z,20.45
2019-04-09T02:11:13.036Z,20.10
2019-04-09T02:12:24.939Z,19.02
2019-04-09T02:13:30.596Z,17.87
2019-04-09T02:14:45.869Z,20.30
2019-04-09T02:15:49.896Z,15.65
2019-04-09T02:16:53.167Z,14.25
2019-04-09T02:18:13.615Z,16.20
2019-04-09T02:19:33.848Z,16.52
2019-04-09T02:20:42.527Z,17.73
2019-04-09T02:21:49.108Z,19.95
2019-04-09T02:23:09.988Z,23.67
2019-04-09T02:24:18.691Z,22.20
2019-04-09T02:25:30.764Z,23.05
2019-04-09T02:26:33.771Z,20.57
2019-04-09T02:27:43.031Z,15.25
2019-04-09T02:28:50.511Z,18.07
2019-04-09T02:29:59.911Z,17.02
2019-04-09T02:31:08.428Z,16.27
2019-04-09T02:32:11.860Z,18.25
2019-04-09T02:33:25.465Z,15.03
2019-04-09T02:34:40.589Z,20.70
2019-04-09T02:35:51.157Z,16.27
2019-04-09T02:37:10.866Z,13.48
2019-04-09T02:38:13.930Z,18.70
2019-04-09T02:39:27.117Z,19.73
2019-04-09T02:40:45.345Z,17.07
2019-04-09T02:42:06.280Z,21.97
2019-04-09T02:43:10.286Z,17.02
2019-04-09T02:44:19.336Z,20.05
2019-04-09T02:45:31.156Z,23.27
2019-04-09T02:46:36.824Z,18.48
2019-04-09T02:47:41.123Z,16.97
2019-04-09T02:48:44.204Z,17.65
2019-04-09T02:49:56.116Z,16.67
2019-04-09T02:51:05.202Z,19.12
2019-04-09T02:52:09.220Z,18.27
2019-04-09T02:53:12.492Z,18.42
2019-04-09T02:54:30.574Z,29.82
2019-04-09T02:55:50.116Z,20.35
2019-04-09T02:56:53.056Z,15.60
2019-04-09T02:57:57.315Z,17.60
2019-04-09T02:59:03.591Z,18.75
2019-04-09T03:00:07.457Z,21.15
2019-04-09T03:01:13.143Z,21.12
2019-04-09T03:02:30.983Z,18.12
2019-04-09T03:03:36.624Z,15.98
2019-04-09T03:04:51.135Z,16.82
2019-04-09T03:06:06.079Z,16.80
2019-04-09T03:07:15.202Z,15.55
2019-04-09T03:08:18.911Z,17.42
2019-04-09T03:09:40.573Z,16.35
2019-04-09T03:10:44.693Z,19.95
2019-04-09T03:11:54.191Z,18.02
2019-04-09T03:13:14.305Z,19.70
2019-04-09T03:14:17.774Z,21.42
2019-04-09T03:15:32.623Z,15.23
2019-04-09T03:16:53.674Z,17.23
2019-04-09T03:18:13.533Z,14.60
2019-04-09T03:19:19.511Z,18.40
2019-04-09T03:20:26.074Z,16.17
2019-04-09T03:21:41.964Z,19.45
2019-04-09T03:23:02.840Z,16.62
2019-04-09T03:24:14.891Z,15.18
2019-04-09T03:25:20.574Z,18.15
2019-04-09T03:26:40.172Z,20.92
2019-04-09T03:28:05.893Z,18.30
2019-04-09T03:29:04.257Z,17.82
2019-04-09T03:30:12.651Z,17.37
2019-04-09T03:31:19.973Z,18.75
2019-04-09T03:32:29.401Z,18.50
2019-04-09T03:33:41.579Z,19.92
2019-04-09T03:34:45.600Z,20.62
2019-04-09T03:35:51.305Z,17.75
2019-04-09T03:36:54.539Z,22.37
2019-04-09T03:38:14.192Z,21.95
2019-04-09T03:39:19.990Z,17.35
2019-04-09T03:40:25.768Z,16.42
2019-04-09T03:41:37.434Z,19.05
2019-04-09T03:42:57.525Z,16.70
2019-04-09T03:44:03.368Z,18.00
2019-04-09T03:45:10.778Z,22.15
2019-04-09T03:46:16.752Z,18.02
2019-04-09T03:47:36.739Z,15.98
2019-04-09T03:48:52.460Z,17.48
2019-04-09T03:49:58.868Z,19.40
2019-04-09T03:51:02.251Z,15.60
2019-04-09T03:52:22.899Z,20.92
2019-04-09T03:53:39.077Z,18.40
2019-04-09T03:54:44.948Z,15.48
2019-04-09T03:56:05.373Z,19.75
2019-04-09T03:57:14.431Z,18.57
2019-04-09T03:58:22.151Z,16.12
2019-04-09T03:59:23.474Z,17.92
2019-04-09T04:00:26.992Z,19.70
2019-04-09T04:01:35.779Z,17.85
2019-04-09T04:02:51.402Z,15.50
2019-04-09T04:04:13.012Z,21.35
2019-04-09T04:05:27.992Z,20.70
2019-04-09T04:06:30.927Z,22.70
2019-04-09T04:07:36.723Z,19.45
2019-04-09T04:08:51.542Z,18.27
2019-04-09T04:09:54.707Z,20.68
2019-04-09T04:11:14.822Z,22.00
2019-04-09T04:12:29.604Z,14.45
2019-04-09T04:13:49.047Z,15.80
2019-04-09T04:14:51.955Z,20.27
2019-04-09T04:15:55.158Z,20.40
2019-04-09T04:16:58.172Z,17.52
2019-04-09T04:18:01.075Z,18.65
2019-04-09T04:19:06.704Z,17.17
2019-04-09T04:20:15.409Z,16.17
2019-04-09T04:21:36.382Z,19.75
2019-04-09T04:22:51.698Z,23.15
2019-04-09T04:24:06.528Z,20.23
2019-04-09T04:25:26.549Z,20.37
2019-04-09T04:26:36.243Z,20.55
2019-04-09T04:27:51.257Z,20.82
2019-04-09T04:28:57.462Z,19.50
2019-04-09T04:30:09.372Z,23.40
2019-04-09T04:31:30.484Z,20.27
2019-04-09T04:32:51.911Z,17.55
2019-04-09T04:33:56.138Z,18.82
2019-04-09T04:34:59.649Z,18.37
2019-04-09T04:36:02.680Z,31.80
2019-04-09T04:37:24.657Z,21.33
2019-04-09T04:38:36.838Z,22.22
2019-04-09T04:39:45.874Z,22.67
2019-04-09T04:40:49.663Z,20.02
2019-04-09T04:41:55.211Z,19.40
2019-04-09T04:43:14.808Z,21.77
2019-04-09T04:44:17.780Z,19.15
2019-04-09T04:45:20.707Z,20.10
2019-04-09T04:46:35.658Z,21.93
2019-04-09T04:47:44.395Z,24.47
2019-04-09T04:49:06.646Z,18.73
2019-04-09T04:50:26.393Z,23.87
2019-04-09T04:51:30.656Z,22.32
2019-04-09T04:52:39.927Z,22.20
2019-04-09T04:53:55.194Z,18.05
2019-04-09T04:55:00.779Z,22.02
2019-04-09T04:56:03.718Z,18.52
2019-04-09T04:57:06.607Z,25.08
2019-04-09T04:58:18.239Z,19.45
2019-04-09T04:59:26.715Z,23.02
2019-04-09T05:00:44.986Z,20.00
2019-04-09T05:01:54.844Z,19.20
2019-04-09T05:03:14.249Z,21.70
2019-04-09T05:04:22.972Z,20.20
2019-04-09T05:05:31.683Z,18.50
2019-04-09T05:06:37.359Z,16.60
2019-04-09T05:07:47.606Z,22.37
2019-04-09T05:09:02.591Z,27.02
2019-04-09T05:10:23.908Z,20.23
2019-04-09T05:11:29.589Z,25.15
2019-04-09T05:12:51.219Z,21.45
2019-04-09T05:14:01.110Z,26.97
2019-04-09T05:15:11.625Z,25.95
2019-04-09T05:16:24.173Z,21.05
2019-04-09T05:17:27.211Z,18.00
2019-04-09T05:18:48.183Z,20.90
2019-04-09T05:20:00.587Z,18.62
2019-04-09T05:21:06.623Z,19.23
2019-04-09T05:22:27.412Z,20.52
2019-04-09T05:23:34.222Z,22.22
2019-04-09T05:24:43.201Z,18.52
2019-04-09T05:26:02.622Z,19.35
2019-04-09T05:27:15.074Z,21.52
2019-04-09T05:28:34.460Z,21.70
2019-04-09T05:29:40.290Z,18.70
2019-04-09T05:30:58.746Z,26.20
2019-04-09T05:32:01.858Z,23.92
2019-04-09T05:33:20.608Z,25.37
2019-04-09T05:34:26.498Z,27.20
2019-04-09T05:35:47.493Z,23.10
2019-04-09T05:37:06.702Z,24.47
2019-04-09T05:38:09.809Z,19.70
2019-04-09T05:39:30.591Z,27.67
2019-04-09T05:40:45.510Z,24.35
2019-04-09T05:42:03.641Z,22.25
2019-04-09T05:43:09.917Z,23.47
2019-04-09T05:44:25.980Z,25.30
2019-04-09T05:45:31.966Z,20.82
2019-04-09T05:46:37.948Z,22.52
2019-04-09T05:47:52.881Z,21.80
2019-04-09T05:48:58.685Z,20.35
2019-04-09T05:50:08.805Z,24.67
2019-04-09T05:51:28.579Z,23.18
2019-04-09T05:52:35.306Z,16.52
2019-04-09T05:53:53.354Z,22.48
2019-04-09T05:55:12.762Z,19.50
2019-04-09T05:56:15.989Z,28.23
2019-04-09T05:57:22.136Z,22.75
2019-04-09T05:58:41.361Z,23.85
2019-04-09T06:00:01.993Z,21.93
2019-04-09T06:01:05.120Z,19.05
2019-04-09T06:02:08.085Z,21.55
2019-04-09T06:03:17.692Z,20.40
2019-04-09T06:04:36.070Z,18.20
2019-04-09T06:05:44.892Z,23.42
2019-04-09T06:06:50.808Z,34.48
2019-04-09T06:09:29.193Z,17.60
2019-04-09T06:10:30.344Z,20.57
2019-04-09T06:11:31.764Z,26.40
2019-04-09T06:12:33.085Z,22.15
2019-04-09T06:13:34.228Z,23.27
2019-04-09T06:14:35.248Z,23.60
2019-04-09T06:15:37.120Z,21.93
2019-04-09T06:16:38.415Z,19.95
2019-04-09T06:17:39.466Z,23.60
2019-04-09T06:18:40.707Z,23.42
2019-04-09T06:19:41.896Z,19.75
2019-04-09T06:20:42.947Z,23.73
2019-04-09T06:21:45.314Z,19.95
2019-04-09T06:22:47.706Z,21.20
2019-04-09T06:23:48.875Z,21.40
2019-04-09T06:24:49.996Z,29.55
2019-04-09T06:25:51.574Z,20.72
2019-04-09T06:26:52.887Z,23.42
2019-04-09T06:27:54.049Z,18.02
2019-04-09T06:28:55.581Z,18.35
2019-04-09T06:29:56.588Z,21.55
2019-04-09T06:30:57.919Z,23.80
2019-04-09T06:32:00.913Z,22.87
2019-04-09T06:33:06.584Z,22.67
2019-04-09T06:34:27.394Z,22.02
2019-04-09T06:35:33.995Z,23.80
2019-04-09T06:36:37.454Z,22.22
2019-04-09T06:37:53.429Z,22.95
2019-04-09T06:38:56.425Z,20.05
2019-04-09T06:39:59.369Z,23.75
2019-04-09T06:41:03.291Z,24.43
2019-04-09T06:42:10.834Z,20.45
2019-04-09T06:43:15.683Z,20.70
2019-04-09T06:44:35.044Z,24.70
2019-04-09T06:45:49.957Z,21.77
2019-04-09T06:46:53.851Z,18.37
2019-04-09T06:47:59.471Z,21.35
2019-04-09T06:49:02.416Z,23.95
2019-04-09T06:50:07.284Z,23.62
2019-04-09T06:51:34.418Z,20.30
2019-04-09T06:52:33.158Z,25.80
2019-04-09T06:53:36.071Z,22.87
2019-04-09T06:54:59.614Z,24.20
2019-04-09T06:56:00.974Z,22.25
2019-04-09T06:57:19.008Z,27.05
2019-04-09T06:58:22.630Z,21.20
2019-04-09T06:59:42.229Z,23.73
2019-04-09T07:00:49.074Z,28.30
2019-04-09T07:01:55.334Z,28.60
2019-04-09T07:03:04.141Z,24.63
2019-04-09T07:04:07.726Z,21.57
2019-04-09T07:05:13.628Z,20.05
2019-04-09T07:06:32.962Z,22.73
2019-04-09T07:07:52.571Z,22.02
2019-04-09T07:09:11.816Z,21.82
2019-04-09T07:10:24.386Z,26.20
2019-04-09T07:11:33.197Z,19.77
2019-04-09T07:12:36.671Z,23.83
2019-04-09T07:13:45.996Z,30.00
2019-04-09T07:14:56.187Z,23.85
2019-04-09T07:16:09.602Z,28.15
2019-04-09T07:17:18.406Z,29.05
2019-04-09T07:18:37.932Z,25.80
2019-04-09T07:19:43.378Z,21.12
2019-04-09T07:21:03.549Z,24.65
2019-04-09T07:22:15.389Z,24.20
2019-04-09T07:23:18.638Z,25.88
2019-04-09T07:24:33.635Z,19.35
2019-04-09T07:25:52.297Z,25.20
2019-04-09T07:27:04.185Z,25.57
2019-04-09T07:28:24.596Z,24.82
2019-04-09T07:29:43.660Z,19.62
2019-04-09T07:30:34.853Z,25.77
2019-04-09T07:31:39.457Z,24.45
2019-04-09T07:32:45.920Z,27.50
2019-04-09T07:33:52.995Z,27.50
2019-04-09T07:34:56.067Z,24.52
2019-04-09T07:36:17.293Z,31.65
2019-04-09T07:37:26.076Z,26.25
2019-04-09T07:38:50.016Z,24.98
2019-04-09T07:40:08.159Z,24.25
2019-04-09T07:41:16.840Z,21.65
2019-04-09T07:42:25.900Z,23.98
2019-04-09T07:43:35.929Z,24.80
2019-04-09T07:44:39.572Z,26.33
2019-04-09T07:45:54.551Z,24.20
2019-04-09T07:47:03.377Z,27.80
2019-04-09T07:48:18.141Z,26.23
2019-04-09T07:49:31.998Z,24.55
2019-04-09T07:50:37.058Z,25.72
2019-04-09T07:51:40.863Z,33.60
2019-04-09T07:53:02.492Z,25.10
2019-04-09T07:54:14.687Z,24.80
2019-04-09T07:55:21.751Z,21.57
2019-04-09T07:56:34.228Z,29.55
2019-04-09T07:57:42.932Z,27.10
2019-04-09T07:58:45.853Z,25.95
2019-04-09T08:00:00.089Z,24.82
2019-04-09T08:00:55.295Z,26.10
2019-04-09T08:02:02.174Z,25.02
2019-04-09T08:03:07.696Z,33.48
2019-04-09T08:04:13.477Z,26.93
2019-04-09T08:05:18.105Z,23.15
2019-04-09T08:06:33.176Z,32.38
2019-04-09T08:07:36.764Z,29.18
2019-04-09T08:08:42.458Z,24.55
2019-04-09T08:09:45.775Z,23.47
2019-04-09T08:10:56.629Z,26.35
2019-04-09T08:12:00.475Z,24.67
2019-04-09T08:13:20.778Z,39.40
2019-04-09T08:14:33.763Z,27.48
2019-04-09T08:15:49.482Z,26.68
2019-04-09T08:16:52.827Z,27.17
2019-04-09T08:18:15.875Z,26.97
2019-04-09T08:19:30.252Z,29.80
2019-04-09T08:20:34.029Z,24.15
2019-04-09T08:21:40.611Z,28.17
2019-04-09T08:22:46.285Z,38.10
2019-04-09T08:24:04.193Z,30.75
2019-04-09T08:25:27.770Z,37.20
2019-04-09T08:26:36.112Z,26.65
2019-04-09T08:27:55.207Z,26.73
2019-04-09T08:29:15.034Z,24.98
2019-04-09T08:30:25.873Z,24.37
2019-04-09T08:31:29.175Z,26.45
2019-04-09T08:32:41.201Z,27.50
2019-04-09T08:33:42.792Z,27.98
2019-04-09T08:34:48.544Z,28.77
2019-04-09T08:35:52.139Z,27.42
2019-04-09T08:36:58.772Z,24.23
2019-04-09T08:38:04.693Z,27.32
2019-04-09T08:39:26.545Z,28.92
2019-04-09T08:40:49.665Z,28.92
2019-04-09T08:41:59.601Z,26.17
2019-04-09T08:43:07.964Z,29.40
2019-04-09T08:44:15.288Z,26.45
2019-04-09T08:45:34.721Z,24.72
2019-04-09T08:46:43.283Z,27.55
2019-04-09T08:47:47.031Z,27.35
2019-04-09T08:48:59.990Z,27.65
2019-04-09T08:50:20.877Z,28.60
2019-04-09T08:51:23.868Z,24.37
2019-04-09T08:52:32.929Z,24.60
2019-04-09T08:53:54.285Z,20.85
2019-04-09T08:55:01.494Z,24.77
2019-04-09T08:56:08.325Z,28.92
2019-04-09T08:57:16.562Z,25.48
2019-04-09T08:58:31.365Z,28.15
2019-04-09T08:59:34.764Z,31.48
2019-04-09T09:02:16.607Z,30.37
2019-04-09T09:03:17.591Z,23.75
2019-04-09T09:04:38.042Z,27.07
2019-04-09T09:05:52.806Z,28.05
2019-04-09T09:06:53.598Z,42.43
2019-04-09T09:08:04.456Z,27.50
2019-04-09T09:09:24.296Z,31.57
2019-04-09T09:10:33.679Z,28.20
2019-04-09T09:11:43.317Z,25.90
2019-04-09T09:12:49.419Z,30.32
2019-04-09T09:13:52.609Z,25.35
2019-04-09T09:15:01.593Z,26.75
2019-04-09T09:16:13.645Z,23.00
2019-04-09T09:17:38.418Z,22.98
2019-04-09T09:18:56.941Z,24.32
2019-04-09T09:20:04.210Z,22.85
2019-04-09T09:21:16.601Z,29.42
2019-04-09T09:22:21.225Z,31.35
2019-04-09T09:23:24.136Z,25.30
2019-04-09T09:24:33.566Z,27.02
2019-04-09T09:25:53.137Z,28.38
2019-04-09T09:27:08.585Z,21.52
2019-04-09T09:28:28.782Z,25.27
2019-04-09T09:29:37.784Z,27.42
2019-04-09T09:30:56.417Z,26.95
2019-04-09T09:32:03.010Z,45.20
2019-04-09T09:33:09.913Z,23.35
2019-04-09T09:34:27.371Z,24.07
2019-04-09T09:35:30.638Z,27.52
2019-04-09T09:36:42.770Z,25.25
2019-04-09T09:37:47.889Z,32.95
2019-04-09T09:38:57.150Z,28.70
2019-04-09T09:40:01.020Z,29.67
2019-04-09T09:41:05.934Z,35.60
2019-04-09T09:42:25.653Z,24.20
2019-04-09T09:43:28.591Z,25.90
2019-04-09T09:44:34.160Z,31.65
2019-04-09T09:45:53.739Z,21.82
2019-04-09T09:46:56.791Z,21.45
2019-04-09T09:48:09.165Z,22.25
2019-04-09T09:49:22.129Z,22.77
2019-04-09T09:50:41.652Z,20.85
2019-04-09T09:51:56.728Z,29.98
2019-04-09T09:53:08.492Z,19.60
2019-04-09T09:54:17.451Z,23.57
2019-04-09T09:55:24.198Z,23.05
2019-04-09T09:56:34.874Z,22.15
2019-04-09T09:57:50.678Z,22.32
2019-04-09T09:59:08.443Z,22.82
2019-04-09T10:00:12.759Z,21.62
2019-04-09T10:01:23.730Z,27.98
2019-04-09T10:02:24.594Z,26.68
2019-04-09T10:03:27.511Z,28.80
2019-04-09T10:04:33.240Z,25.30
2019-04-09T10:05:37.177Z,22.02
2019-04-09T10:06:41.859Z,22.58
2019-04-09T10:07:53.238Z,38.92
2019-04-09T10:08:56.216Z,20.52
2019-04-09T10:10:17.166Z,29.07
2019-04-09T10:11:33.683Z,28.15
2019-04-09T10:12:48.660Z,25.27
2019-04-09T10:13:50.722Z,32.53
2019-04-09T10:15:06.003Z,31.20
2019-04-09T10:16:14.312Z,19.50
2019-04-09T10:17:18.710Z,25.80
2019-04-09T10:18:50.479Z,25.90
2019-04-09T10:20:01.460Z,24.82
2019-04-09T10:21:04.653Z,31.77
2019-04-09T10:22:13.549Z,26.90
2019-04-09T10:23:31.698Z,24.52
2019-04-09T10:24:37.413Z,27.48
2019-04-09T10:25:46.093Z,24.82
2019-04-09T10:26:50.196Z,21.70
2019-04-09T10:28:10.550Z,29.92
2019-04-09T10:29:16.276Z,26.02
2019-04-09T10:30:37.097Z,21.80
2019-04-09T10:31:47.655Z,28.45
2019-04-09T10:33:04.108Z,27.15
2019-04-09T10:34:24.887Z,24.57
2019-04-09T10:35:34.358Z,25.70
2019-04-09T10:36:37.946Z,21.50
2019-04-09T10:37:41.317Z,24.40
2019-04-09T10:38:47.668Z,27.90
2019-04-09T10:39:53.614Z,26.52
2019-04-09T10:40:56.631Z,23.50
2019-04-09T10:42:06.878Z,24.92
2019-04-09T10:43:12.490Z,23.75
2019-04-09T10:44:23.676Z,21.87
2019-04-09T10:45:44.972Z,25.40
2019-04-09T10:47:07.561Z,25.23
2019-04-09T10:48:24.732Z,25.85
2019-04-09T10:49:35.860Z,22.73
2019-04-09T10:50:45.188Z,25.12
2019-04-09T10:52:21.379Z,22.98
2019-04-09T10:53:31.586Z,25.65
2019-04-09T10:54:51.913Z,27.90
2019-04-09T10:56:11.849Z,24.77
2019-04-09T10:57:24.587Z,27.13
2019-04-09T10:58:40.477Z,27.20
2019-04-09T10:59:44.896Z,26.15
2019-04-09T11:00:49.471Z,23.77
2019-04-09T11:02:04.791Z,23.90
2019-04-09T11:03:24.204Z,22.55
2019-04-09T11:04:27.504Z,35.13
2019-04-09T11:05:45.222Z,26.37
2019-04-09T11:06:48.716Z,21.23
2019-04-09T11:08:04.186Z,29.15
2019-04-09T11:09:09.159Z,29.45
2019-04-09T11:10:20.286Z,36.08
2019-04-09T11:11:22.139Z,25.90
2019-04-09T11:12:29.601Z,26.73
2019-04-09T11:13:33.384Z,24.45
2019-04-09T11:14:54.072Z,31.20
2019-04-09T11:15:59.358Z,24.23
2019-04-09T11:17:11.027Z,26.90
2019-04-09T11:18:17.051Z,26.25
2019-04-09T11:19:27.672Z,25.85
2019-04-09T11:20:46.933Z,32.35
2019-04-09T11:21:50.369Z,37.78
2019-04-09T11:23:05.432Z,30.62
2019-04-09T11:24:29.362Z,34.05
2019-04-09T11:25:44.828Z,30.37
2019-04-09T11:26:50.091Z,23.47
2019-04-09T11:27:54.872Z,35.52
2019-04-09T11:29:00.571Z,26.00
2019-04-09T11:30:12.086Z,29.45
2019-04-09T11:31:44.229Z,29.90
2019-04-09T11:32:54.105Z,30.43
2019-04-09T11:34:06.901Z,30.15
2019-04-09T11:35:26.773Z,28.75
2019-04-09T11:36:47.753Z,27.73
2019-04-09T11:38:03.394Z,29.60
2019-04-09T11:39:26.071Z,29.05
2019-04-09T11:40:33.321Z,28.85
2019-04-09T11:41:36.998Z,36.03
2019-04-09T11:42:58.150Z,32.73
2019-04-09T11:44:04.709Z,27.25
2019-04-09T11:45:15.935Z,37.10
2019-04-09T11:46:28.442Z,35.55
2019-04-09T11:47:35.064Z,34.38
2019-04-09T11:48:42.256Z,25.12
2019-04-09T11:49:45.418Z,25.15
2019-04-09T11:51:05.548Z,26.05
2019-04-09T11:52:20.988Z,28.90
2019-04-09T11:53:40.419Z,25.08
2019-04-09T11:54:49.148Z,26.75
2019-04-09T11:55:52.151Z,21.05
2019-04-09T11:57:10.657Z,31.70
2019-04-09T11:58:22.251Z,29.65
2019-04-09T11:59:28.203Z,38.70
2019-04-09T12:00:39.635Z,29.02
2019-04-09T12:01:59.484Z,28.87
2019-04-09T12:02:59.185Z,28.98
2019-04-09T12:04:07.696Z,26.25
2019-04-09T12:05:26.707Z,32.73
2019-04-09T12:06:29.811Z,27.15
2019-04-09T12:07:33.761Z,29.72
2019-04-09T12:08:43.209Z,25.55
2019-04-09T12:09:49.860Z,25.77
2019-04-09T12:10:52.878Z,32.48
2019-04-09T12:11:58.587Z,30.30
2019-04-09T12:13:02.233Z,34.88
2019-04-09T12:14:24.097Z,26.35
2019-04-09T12:15:27.203Z,29.10
2019-04-09T12:16:41.892Z,47.70
2019-04-09T12:18:01.965Z,24.70
2019-04-09T12:19:10.990Z,34.15
2019-04-09T12:20:15.562Z,37.75
2019-04-09T12:21:35.785Z,33.13
2019-04-09T12:22:55.584Z,29.32
2019-04-09T12:24:15.329Z,30.10
2019-04-09T12:25:24.383Z,28.07
2019-04-09T12:26:33.343Z,28.00
2019-04-09T12:27:36.242Z,27.80
2019-04-09T12:28:41.824Z,36.83
2019-04-09T12:30:03.663Z,32.03
2019-04-09T12:31:23.904Z,24.57
2019-04-09T12:32:30.348Z,28.15
2019-04-09T12:33:33.561Z,37.35
2019-04-09T12:34:51.374Z,35.38
2019-04-09T12:35:54.285Z,28.95
2019-04-09T12:36:58.217Z,28.23
2019-04-09T12:38:16.397Z,33.42
2019-04-09T12:39:20.086Z,29.25
2019-04-09T12:40:39.396Z,28.90
2019-04-09T12:41:59.810Z,31.17
2019-04-09T12:43:19.426Z,24.35
2019-04-09T12:44:25.645Z,44.15
2019-04-09T12:45:45.463Z,48.20
2019-04-09T12:46:54.538Z,29.63
2019-04-09T12:48:14.685Z,28.23
2019-04-09T12:49:29.811Z,31.85
2019-04-09T12:50:38.373Z,32.17
2019-04-09T12:51:44.910Z,31.87
2019-04-09T12:52:53.856Z,29.18
2019-04-09T12:54:00.124Z,24.50
2019-04-09T12:55:09.236Z,44.18
2019-04-09T12:56:13.086Z,32.40
2019-04-09T12:57:16.164Z,30.97
2019-04-09T12:58:28.088Z,23.85
2019-04-09T12:59:31.575Z,36.75
2019-04-09T13:00:40.283Z,32.85
2019-04-09T13:01:46.991Z,34.35
2019-04-09T13:03:04.989Z,35.83
2019-04-09T13:04:07.905Z,36.38
2019-04-09T13:05:10.936Z,26.57
2019-04-09T13:06:13.853Z,33.08
2019-04-09T13:07:29.628Z,32.05
2019-04-09T13:08:35.874Z,28.62
2019-04-09T13:09:53.657Z,28.60
2019-04-09T13:11:14.095Z,24.25
2019-04-09T13:12:36.094Z,29.35
2019-04-09T13:13:42.584Z,26.55
2019-04-09T13:15:02.035Z,25.65
2019-04-09T13:16:21.648Z,32.40
2019-04-09T13:17:40.217Z,33.92
2019-04-09T13:18:44.234Z,28.07
2019-04-09T13:20:04.801Z,28.83
2019-04-09T13:21:07.709Z,26.93
2019-04-09T13:22:13.384Z,29.42
2019-04-09T13:23:34.641Z,34.27
2019-04-09T13:24:42.859Z,26.50
2019-04-09T13:25:45.551Z,34.90
2019-04-09T13:26:52.154Z,28.00
2019-04-09T13:28:08.138Z,30.30
2019-04-09T13:29:27.643Z,28.95
2019-04-09T13:30:31.440Z,26.60
2019-04-09T13:31:34.676Z,25.55
2019-04-09T13:32:46.732Z,26.35
2019-04-09T13:33:55.165Z,28.50
2019-04-09T13:35:10.349Z,26.27
2019-04-09T13:36:22.109Z,30.77
2019-04-09T13:37:27.636Z,32.38
2019-04-09T13:38:36.650Z,28.98
2019-04-09T13:39:42.793Z,24.10
2019-04-09T13:40:45.848Z,30.25
2019-04-09T13:41:52.015Z,25.02
2019-04-09T13:43:07.087Z,22.13
2019-04-09T13:44:27.176Z,24.35
2019-04-09T13:45:33.773Z,26.48
2019-04-09T13:46:51.776Z,29.82
2019-04-09T13:48:01.505Z,23.52
2019-04-09T13:49:10.652Z,22.75
2019-04-09T13:50:14.718Z,25.00
2019-04-09T13:51:17.668Z,29.20
2019-04-09T13:52:32.675Z,27.50
2019-04-09T13:53:34.020Z,24.10
2019-04-09T13:54:35.632Z,23.12
2019-04-09T13:55:36.715Z,25.35
2019-04-09T13:56:37.713Z,24.47
2019-04-09T13:57:40.067Z,25.65
2019-04-09T13:58:41.547Z,22.75
2019-04-09T13:59:42.676Z,27.17
2019-04-09T14:00:43.673Z,29.23
2019-04-09T14:01:45.046Z,21.87
2019-04-09T14:02:53.678Z,29.90
2019-04-09T14:03:53.120Z,25.60
2019-04-09T14:04:56.046Z,31.15
2019-04-09T14:05:57.087Z,26.70
2019-04-09T14:06:58.384Z,28.98
2019-04-09T14:08:01.158Z,24.75
2019-04-09T14:09:05.626Z,26.15
2019-04-09T14:10:08.200Z,32.03
2019-04-09T14:11:10.200Z,28.67
2019-04-09T14:12:11.439Z,26.37
2019-04-09T14:13:12.460Z,22.90
2019-04-09T14:14:14.207Z,24.63
2019-04-09T14:15:16.279Z,23.65
2019-04-09T14:16:18.605Z,22.55
2019-04-09T14:17:19.880Z,25.50
2019-04-09T14:18:21.959Z,22.32
2019-04-09T14:19:24.048Z,25.10
2019-04-09T14:20:25.407Z,26.27
2019-04-09T14:21:26.891Z,19.25
2019-04-09T14:22:27.903Z,23.32
2019-04-09T14:23:30.049Z,20.85
2019-04-09T14:24:31.228Z,27.22
2019-04-09T14:25:33.694Z,20.32
2019-04-09T14:26:34.877Z,21.48
2019-04-09T14:27:38.011Z,26.35
2019-04-09T14:28:39.682Z,24.80
2019-04-09T14:29:40.971Z,24.37
2019-04-09T14:30:42.330Z,23.05
2019-04-09T14:31:44.366Z,24.25
2019-04-09T14:32:45.974Z,23.90
2019-04-09T14:33:47.240Z,32.30
2019-04-09T14:34:48.280Z,29.55
2019-04-09T14:35:49.911Z,23.27
2019-04-09T14:36:51.328Z,23.52
2019-04-09T14:37:52.330Z,28.15
2019-04-09T14:38:54.451Z,22.07
2019-04-09T14:39:55.660Z,22.80
2019-04-09T14:40:56.682Z,24.43
2019-04-09T14:41:59.393Z,24.95
2019-04-09T14:43:01.315Z,26.45
2019-04-09T14:44:03.656Z,29.48
2019-04-09T14:45:06.193Z,24.10
2019-04-09T14:46:07.468Z,27.15
2019-04-09T14:47:08.492Z,26.68
2019-04-09T14:48:09.481Z,22.77
2019-04-09T14:49:10.496Z,19.57
2019-04-09T14:50:11.799Z,20.95